Time;durP1;ratioP1;P1;durP2;ratioP2;P2;SDS_P1;SDS_P2;PMS_P1;PMS_P2;Temp;Humidity;BMP_temperature;BMP_pressure;BME280_temperature;BME280_humidity;BME280_pressure;Samples;Min_cycle;Max_cycle;Signal;HPM_P1;HPM_P2
2023/12/29 00:01:14;;;;;;;8.23;0.68;;;11.30;99.90;;;;;;5023517;28;20021;-93
2023/12/29 00:03:40;;;;;;;8.02;1.63;;;11.40;99.90;;;;;;5021559;28;20445;-93
2023/12/29 00:06:06;;;;;;;7.57;0.60;;;11.30;99.90;;;;;;5022086;28;20091;-93
2023/12/29 00:08:32;;;;;;;9.65;1.10;;;11.30;99.90;;;;;;5032625;28;20025;-92
2023/12/29 00:10:57;;;;;;;8.93;0.60;;;11.30;99.90;;;;;;5032425;28;20535;-93
2023/12/29 00:13:24;;;;;;;9.88;0.68;;;11.20;99.90;;;;;;5026985;28;20029;-93
2023/12/29 00:15:53;;;;;;;7.82;0.60;;;11.10;99.90;;;;;;5037525;28;20040;-92
2023/12/29 00:18:19;;;;;;;9.13;0.80;;;11.00;99.90;;;;;;5034060;28;20077;-93
2023/12/29 00:20:45;;;;;;;6.32;0.60;;;11.00;99.90;;;;;;5036620;28;20044;-93
2023/12/29 00:23:11;;;;;;;7.30;0.88;;;10.90;99.90;;;;;;5046293;28;20053;-93
2023/12/29 00:25:37;;;;;;;10.90;0.93;;;10.90;99.90;;;;;;5061519;28;20034;-92
2023/12/29 00:28:04;;;;;;;8.65;0.90;;;10.90;99.90;;;;;;5033473;28;20051;-92
2023/12/29 00:30:29;;;;;;;7.85;0.80;;;10.90;99.90;;;;;;5049072;28;20033;-93
2023/12/29 00:32:56;;;;;;;9.57;1.27;;;11.00;99.90;;;;;;5031287;28;20034;-93
2023/12/29 00:35:21;;;;;;;9.77;0.70;;;11.00;99.90;;;;;;5033120;28;20029;-94
2023/12/29 00:37:47;;;;;;;8.20;0.80;;;11.00;99.90;;;;;;5031667;28;20117;-93
2023/12/29 00:40:13;;;;;;;5.65;0.40;;;11.10;99.90;;;;;;5033639;28;20036;-92
2023/12/29 00:42:39;;;;;;;9.65;0.82;;;11.10;99.90;;;;;;5017430;28;20030;-92
2023/12/29 00:45:06;;;;;;;6.68;0.50;;;11.10;99.90;;;;;;5031845;28;20062;-93
2023/12/29 00:47:31;;;;;;;8.43;1.40;;;11.20;99.90;;;;;;5044991;28;20030;-92
2023/12/29 00:49:57;;;;;;;8.02;0.45;;;11.10;99.90;;;;;;5031253;28;20037;-93
2023/12/29 00:52:22;;;;;;;11.43;1.50;;;11.20;99.90;;;;;;5031235;28;20029;-92
2023/12/29 00:54:48;;;;;;;7.80;0.68;;;11.00;99.90;;;;;;5030356;28;20025;-92
2023/12/29 00:57:14;;;;;;;6.10;0.70;;;11.00;99.90;;;;;;5029414;28;20493;-92
2023/12/29 00:59:40;;;;;;;8.25;1.13;;;10.90;99.90;;;;;;5029526;28;20486;-90
2023/12/29 01:02:06;;;;;;;5.40;0.70;;;10.80;99.90;;;;;;5054466;28;20120;-91
2023/12/29 01:04:32;;;;;;;8.32;0.60;;;10.70;99.90;;;;;;5047422;28;20056;-92
2023/12/29 01:06:57;;;;;;;10.07;0.70;;;10.70;99.90;;;;;;5032454;28;20033;-92
2023/12/29 01:09:23;;;;;;;8.18;0.75;;;10.60;99.90;;;;;;5032838;28;20088;-91
2023/12/29 01:11:49;;;;;;;9.43;0.60;;;10.60;99.90;;;;;;5031593;28;20512;-92
2023/12/29 01:14:14;;;;;;;9.18;0.85;;;10.50;99.90;;;;;;5049819;28;20736;-91
2023/12/29 01:16:41;;;;;;;12.73;0.57;;;10.50;99.90;;;;;;5032264;28;20037;-92
2023/12/29 01:19:07;;;;;;;6.80;0.50;;;10.50;99.90;;;;;;5031923;28;20497;-92
2023/12/29 01:21:33;;;;;;;5.97;0.60;;;10.50;99.90;;;;;;5027069;28;20034;-91
2023/12/29 01:24:00;;;;;;;5.80;0.60;;;10.50;99.90;;;;;;5027474;28;20018;-92
2023/12/29 01:26:26;;;;;;;7.70;0.70;;;10.50;99.90;;;;;;5029947;28;20029;-93
2023/12/29 01:28:52;;;;;;;10.68;0.82;;;10.50;99.90;;;;;;5029588;28;20025;-92
2023/12/29 01:31:18;;;;;;;9.82;0.77;;;10.50;99.90;;;;;;5031136;28;20026;-91
2023/12/29 01:33:43;;;;;;;8.95;0.70;;;10.60;99.90;;;;;;5029380;28;20029;-92
2023/12/29 01:36:09;;;;;;;8.35;0.85;;;10.50;99.90;;;;;;5030352;28;20040;-91
2023/12/29 01:38:35;;;;;;;7.13;0.60;;;10.50;99.90;;;;;;5033107;28;20045;-90
2023/12/29 01:41:00;;;;;;;9.27;0.68;;;10.60;99.90;;;;;;5028293;28;20034;-92
2023/12/29 01:43:26;;;;;;;9.05;0.60;;;10.50;99.90;;;;;;5021549;28;20116;-92
2023/12/29 01:45:51;;;;;;;7.93;0.95;;;10.50;99.90;;;;;;5025484;28;20053;-92
2023/12/29 01:48:17;;;;;;;13.57;0.73;;;10.60;99.90;;;;;;5029128;28;20029;-91
2023/12/29 01:50:44;;;;;;;7.25;0.90;;;10.60;99.90;;;;;;5049940;28;20052;-92
2023/12/29 01:53:10;;;;;;;5.32;0.50;;;10.60;99.90;;;;;;5031653;28;20025;-91
2023/12/29 01:55:37;;;;;;;8.73;0.70;;;10.60;99.90;;;;;;5033523;28;20026;-92
2023/12/29 01:58:03;;;;;;;10.10;0.50;;;10.50;99.90;;;;;;5030750;28;20033;-92
2023/12/29 02:00:29;;;;;;;8.63;0.77;;;10.50;99.90;;;;;;5029222;28;20030;-94
2023/12/29 02:02:54;;;;;;;4.30;0.50;;;10.50;99.90;;;;;;5031091;28;20059;-93
2023/12/29 02:05:24;;;;;;;6.88;0.50;;;10.50;99.90;;;;;;5032468;28;20060;-93
2023/12/29 02:07:51;;;;;;;10.13;0.60;;;10.50;99.90;;;;;;5033676;28;20035;-94
2023/12/29 02:10:18;;;;;;;8.48;0.63;;;10.40;99.90;;;;;;5033390;28;20024;-93
2023/12/29 02:12:47;;;;;;;7.72;0.60;;;10.40;99.90;;;;;;5034966;28;20079;-91
2023/12/29 02:15:12;;;;;;;7.05;0.50;;;10.40;99.90;;;;;;5031656;28;20060;-92
2023/12/29 02:17:52;;;;;;;7.80;0.50;;;10.30;99.90;;;;;;5031744;28;20081;-91
2023/12/29 02:20:18;;;;;;;9.80;0.90;;;10.40;99.90;;;;;;5027200;28;20028;-93
2023/12/29 02:22:44;;;;;;;6.65;0.75;;;10.30;99.90;;;;;;5034421;28;20137;-90
2023/12/29 02:25:10;;;;;;;7.60;1.73;;;10.30;99.90;;;;;;5029726;28;20045;-93
2023/12/29 02:27:54;;;;;;;7.80;1.10;;;10.20;99.90;;;;;;5040344;28;20048;-93
2023/12/29 02:30:34;;;;;;;11.95;0.75;;;10.20;99.90;;;;;;5031350;28;20029;-94
2023/12/29 02:33:04;;;;;;;9.43;0.80;;;10.10;99.90;;;;;;5031360;28;20083;-93
2023/12/29 02:35:35;;;;;;;7.78;1.33;;;10.20;99.90;;;;;;5050528;28;20036;-93
2023/12/29 02:38:01;;;;;;;9.97;0.63;;;10.10;99.90;;;;;;5038185;28;20498;-93
2023/12/29 02:40:27;;;;;;;9.88;1.02;;;10.10;99.90;;;;;;5032541;28;20079;-93
2023/12/29 02:42:52;;;;;;;6.63;0.80;;;10.10;99.90;;;;;;5028663;28;20041;-93
2023/12/29 02:45:18;;;;;;;11.18;1.45;;;10.10;99.90;;;;;;5034315;28;20079;-93
2023/12/29 02:47:44;;;;;;;8.50;0.60;;;10.10;99.90;;;;;;5038329;28;20041;-93
2023/12/29 02:50:10;;;;;;;7.82;0.65;;;10.00;99.90;;;;;;5031068;28;20048;-94
2023/12/29 02:52:36;;;;;;;11.18;0.73;;;10.10;99.90;;;;;;5032246;28;20041;-92
2023/12/29 02:55:03;;;;;;;9.82;0.95;;;10.10;99.90;;;;;;5032363;28;20120;-92
2023/12/29 02:57:29;;;;;;;7.68;0.60;;;10.10;99.90;;;;;;5029409;28;20050;-93
2023/12/29 02:59:55;;;;;;;9.43;0.60;;;10.10;99.90;;;;;;5033729;28;20504;-93
2023/12/29 03:02:21;;;;;;;12.65;0.82;;;10.10;99.90;;;;;;5031001;28;20033;-92
2023/12/29 03:04:47;;;;;;;13.50;0.60;;;10.10;99.90;;;;;;5022990;28;20535;-91
2023/12/29 03:07:12;;;;;;;9.15;0.73;;;10.10;99.90;;;;;;5023551;28;20044;-93
2023/12/29 03:09:38;;;;;;;9.82;0.65;;;10.10;99.90;;;;;;5031482;28;20075;-93
2023/12/29 03:12:04;;;;;;;10.82;0.73;;;10.10;99.90;;;;;;5034440;28;20048;-93
2023/12/29 03:14:30;;;;;;;9.85;0.70;;;10.10;99.90;;;;;;5034726;28;20025;-93
2023/12/29 03:16:55;;;;;;;11.25;1.27;;;10.20;99.90;;;;;;5035127;28;20054;-94
2023/12/29 03:19:21;;;;;;;12.43;0.60;;;10.20;99.90;;;;;;5049839;28;20029;-94
2023/12/29 03:21:46;;;;;;;9.10;0.60;;;10.20;99.90;;;;;;5032724;28;20416;-93
2023/12/29 03:24:12;;;;;;;11.75;1.15;;;10.40;99.90;;;;;;5027429;28;20024;-93
2023/12/29 03:26:38;;;;;;;7.30;0.80;;;10.40;99.90;;;;;;5031182;28;20026;-94
2023/12/29 03:29:04;;;;;;;7.60;0.55;;;10.40;99.90;;;;;;5051249;28;20028;-93
2023/12/29 03:31:30;;;;;;;12.63;0.63;;;10.50;99.90;;;;;;5030786;28;20029;-94
2023/12/29 03:33:55;;;;;;;6.28;0.73;;;10.50;99.90;;;;;;5034641;28;20038;-92
2023/12/29 03:36:21;;;;;;;14.02;0.93;;;10.60;99.90;;;;;;5031485;28;20116;-93
2023/12/29 03:38:47;;;;;;;11.13;1.02;;;10.60;99.90;;;;;;5051151;28;20027;-92
2023/12/29 03:41:12;;;;;;;11.18;0.60;;;10.60;99.90;;;;;;5032049;28;20021;-92
2023/12/29 03:43:38;;;;;;;7.10;1.33;;;10.70;99.90;;;;;;5034774;28;20131;-92
2023/12/29 03:46:14;;;;;;;8.32;0.60;;;10.70;99.90;;;;;;5033245;28;22047;-94
2023/12/29 03:48:40;;;;;;;9.48;0.60;;;10.80;99.90;;;;;;5033878;28;20096;-94
2023/12/29 03:51:05;;;;;;;11.40;0.77;;;10.70;99.90;;;;;;5034902;28;20168;-93
2023/12/29 03:53:31;;;;;;;12.02;0.82;;;10.70;99.90;;;;;;5032625;28;20034;-93
2023/12/29 03:55:56;;;;;;;16.08;0.85;;;10.70;99.90;;;;;;5051062;28;20045;-92
2023/12/29 03:58:22;;;;;;;14.30;0.95;;;10.70;99.90;;;;;;5031953;28;20030;-92
2023/12/29 04:00:48;;;;;;;6.13;0.70;;;10.70;99.90;;;;;;5026189;28;20029;-93
2023/12/29 04:03:13;;;;;;;12.30;1.60;;;10.70;99.90;;;;;;5041310;28;20084;-91
2023/12/29 04:05:39;;;;;;;8.05;0.55;;;10.60;99.90;;;;;;5032433;28;20029;-92
2023/12/29 04:08:05;;;;;;;8.95;0.70;;;10.60;99.90;;;;;;5033197;28;20041;-93
2023/12/29 04:10:30;;;;;;;7.85;0.80;;;10.60;99.90;;;;;;5028652;28;20033;-93
2023/12/29 04:12:56;;;;;;;11.63;0.82;;;10.60;99.90;;;;;;5042458;28;20385;-93
2023/12/29 04:15:21;;;;;;;11.40;0.70;;;10.60;99.90;;;;;;5026288;28;20033;-93
2023/12/29 04:17:47;;;;;;;10.73;0.80;;;10.70;99.90;;;;;;5033624;28;20053;-94
2023/12/29 04:20:13;;;;;;;11.93;0.80;;;10.70;99.90;;;;;;5043905;28;20513;-93
2023/12/29 04:22:38;;;;;;;10.10;0.88;;;10.70;99.90;;;;;;5030758;28;20034;-93
2023/12/29 04:25:04;;;;;;;7.88;0.77;;;10.70;99.90;;;;;;5033465;28;20056;-93
2023/12/29 04:27:30;;;;;;;10.95;0.65;;;10.70;99.90;;;;;;5032778;28;20032;-93
2023/12/29 04:29:55;;;;;;;10.70;0.82;;;10.80;99.90;;;;;;5033661;28;20492;-93
2023/12/29 04:32:21;;;;;;;6.65;0.70;;;10.70;99.90;;;;;;5031411;28;20021;-92
2023/12/29 04:34:46;;;;;;;14.18;1.40;;;10.80;99.90;;;;;;5051123;28;20029;-94
2023/12/29 04:37:12;;;;;;;13.10;1.38;;;10.80;99.90;;;;;;5049212;28;20040;-92
2023/12/29 04:39:38;;;;;;;14.23;1.52;;;10.70;99.90;;;;;;5032076;28;20497;-93
2023/12/29 04:42:04;;;;;;;11.50;1.02;;;10.70;99.90;;;;;;5032363;28;20037;-94
2023/12/29 04:44:29;;;;;;;11.93;1.10;;;10.80;99.90;;;;;;5032654;28;20481;-95
2023/12/29 04:46:55;;;;;;;9.95;0.80;;;10.70;99.90;;;;;;5028023;28;20044;-93
2023/12/29 04:49:21;;;;;;;10.32;1.48;;;10.80;99.90;;;;;;5023011;28;20105;-92
2023/12/29 04:51:48;;;;;;;9.18;0.90;;;10.80;99.90;;;;;;5049102;28;20029;-92
2023/12/29 04:54:14;;;;;;;12.40;1.60;;;10.80;99.90;;;;;;5030833;28;20108;-92
2023/12/29 04:56:39;;;;;;;14.88;1.23;;;10.90;99.90;;;;;;5028306;28;20803;-94
2023/12/29 04:59:05;;;;;;;12.02;1.10;;;10.90;99.90;;;;;;5032278;28;20027;-93
2023/12/29 05:01:30;;;;;;;10.25;1.13;;;10.80;99.90;;;;;;5031442;28;20087;-92
2023/12/29 05:03:56;;;;;;;12.23;1.02;;;10.90;99.90;;;;;;5048927;28;20116;-92
2023/12/29 05:06:21;;;;;;;22.23;1.20;;;10.90;99.90;;;;;;5033173;28;20029;-93
2023/12/29 05:08:47;;;;;;;12.32;1.30;;;10.90;99.90;;;;;;5033190;28;20018;-93
2023/12/29 05:11:13;;;;;;;17.88;1.23;;;10.90;99.90;;;;;;5031686;28;20021;-93
2023/12/29 05:13:38;;;;;;;8.73;0.95;;;10.90;99.90;;;;;;5018366;28;20033;-93
2023/12/29 05:16:04;;;;;;;14.68;0.70;;;10.90;99.90;;;;;;5030636;28;20040;-94
2023/12/29 05:18:30;;;;;;;12.65;1.25;;;10.80;99.90;;;;;;5029472;28;20475;-92
2023/12/29 05:20:55;;;;;;;14.57;1.30;;;10.80;99.90;;;;;;5029294;28;20029;-93
2023/12/29 05:23:21;;;;;;;17.02;2.10;;;10.70;99.90;;;;;;5038240;28;20032;-92
2023/12/29 05:25:46;;;;;;;19.38;1.50;;;10.70;99.90;;;;;;5040223;28;20032;-93
2023/12/29 05:28:12;;;;;;;10.98;0.90;;;10.70;99.90;;;;;;5035275;28;20044;-92
2023/12/29 05:30:37;;;;;;;9.40;0.93;;;10.60;99.90;;;;;;5033538;28;20031;-93
2023/12/29 05:33:03;;;;;;;13.73;0.80;;;10.60;99.90;;;;;;5027678;28;20032;-93
2023/12/29 05:35:29;;;;;;;12.63;1.52;;;10.60;99.90;;;;;;5027664;28;20086;-92
2023/12/29 05:37:54;;;;;;;12.93;0.95;;;10.60;99.90;;;;;;5034884;28;20503;-92
2023/12/29 05:40:20;;;;;;;10.70;1.25;;;10.50;99.90;;;;;;5035024;28;20468;-93
2023/12/29 05:42:45;;;;;;;8.68;1.10;;;10.50;99.90;;;;;;5051311;28;20510;-94
2023/12/29 05:45:11;;;;;;;11.98;0.60;;;10.60;99.90;;;;;;5035152;28;20024;-93
2023/12/29 05:47:37;;;;;;;12.82;1.30;;;10.50;99.90;;;;;;5035053;28;20542;-92
2023/12/29 05:50:03;;;;;;;9.95;0.80;;;10.50;99.90;;;;;;5036316;28;20128;-92
2023/12/29 05:52:37;;;;;;;16.63;1.20;;;10.50;99.90;;;;;;5038282;28;20575;-94
2023/12/29 05:55:03;;;;;;;10.65;0.80;;;10.40;99.90;;;;;;5044017;28;20025;-93
2023/12/29 05:57:29;;;;;;;12.23;0.82;;;10.40;99.90;;;;;;5033958;28;20519;-91
2023/12/29 05:59:54;;;;;;;12.70;1.30;;;10.40;99.90;;;;;;5035988;28;20056;-93
2023/12/29 06:02:20;;;;;;;12.38;1.73;;;10.30;99.90;;;;;;5034213;28;20033;-93
2023/12/29 06:04:46;;;;;;;11.85;1.90;;;10.30;99.90;;;;;;5048564;28;20481;-94
2023/12/29 06:07:11;;;;;;;9.80;0.60;;;10.30;99.90;;;;;;5032634;28;20026;-94
2023/12/29 06:09:37;;;;;;;11.23;1.40;;;10.30;99.90;;;;;;5034213;28;20048;-94
2023/12/29 06:12:03;;;;;;;10.60;0.70;;;10.30;99.90;;;;;;5024445;28;20068;-91
2023/12/29 06:14:28;;;;;;;14.38;0.80;;;10.30;99.90;;;;;;5031902;28;20048;-91
2023/12/29 06:16:54;;;;;;;16.40;0.80;;;10.30;99.90;;;;;;5029166;28;20079;-93
2023/12/29 06:19:19;;;;;;;12.52;1.17;;;10.30;99.90;;;;;;5034155;28;21285;-91
2023/12/29 06:21:45;;;;;;;9.82;0.80;;;10.30;99.90;;;;;;5038645;28;20029;-93
2023/12/29 06:24:11;;;;;;;15.13;0.88;;;10.30;99.90;;;;;;5046293;28;20048;-92
2023/12/29 06:26:42;;;;;;;17.02;0.73;;;10.30;99.90;;;;;;5031333;28;20037;-92
2023/12/29 06:29:08;;;;;;;12.60;0.55;;;10.30;99.90;;;;;;5026519;28;20021;-92
2023/12/29 06:31:34;;;;;;;7.05;0.90;;;10.30;99.90;;;;;;5027296;28;20040;-92
2023/12/29 06:34:00;;;;;;;11.48;0.80;;;10.30;99.90;;;;;;5035183;28;20477;-93
2023/12/29 06:36:26;;;;;;;11.38;1.00;;;10.30;99.90;;;;;;5037109;28;20036;-92
2023/12/29 06:38:52;;;;;;;13.20;0.80;;;10.30;99.90;;;;;;5044283;28;20025;-92
2023/12/29 06:41:19;;;;;;;9.60;1.00;;;10.30;99.90;;;;;;5033374;28;20062;-91
2023/12/29 06:43:45;;;;;;;9.95;1.27;;;10.40;99.90;;;;;;5056543;28;20032;-92
2023/12/29 06:46:13;;;;;;;7.15;0.68;;;10.40;99.90;;;;;;5041303;28;20351;-94
2023/12/29 06:48:39;;;;;;;10.95;0.60;;;10.40;99.90;;;;;;5043048;28;20021;-94
2023/12/29 06:51:05;;;;;;;12.48;0.90;;;10.40;99.90;;;;;;5045301;28;20025;-93
2023/12/29 06:53:31;;;;;;;11.15;1.25;;;10.30;99.90;;;;;;5044278;28;20029;-95
2023/12/29 06:55:57;;;;;;;8.65;0.98;;;10.10;99.90;;;;;;5038698;28;20622;-94
2023/12/29 06:58:22;;;;;;;6.35;0.70;;;10.10;99.90;;;;;;5049367;28;20020;-95
2023/12/29 07:00:48;;;;;;;12.32;0.70;;;10.00;99.90;;;;;;5046605;28;20076;-95
2023/12/29 07:03:25;;;;;;;6.00;0.60;;;9.90;99.90;;;;;;5035832;28;20048;-96
2023/12/29 07:05:51;;;;;;;4.70;0.70;;;9.80;99.90;;;;;;5039611;28;20013;-95
2023/12/29 07:08:17;;;;;;;10.43;0.70;;;9.80;99.90;;;;;;5047370;28;20025;-95
2023/12/29 07:10:43;;;;;;;10.20;1.02;;;9.70;99.90;;;;;;5052546;28;20032;-96
2023/12/29 07:13:09;;;;;;;8.18;0.77;;;9.70;99.90;;;;;;5054857;28;20025;-95
2023/12/29 07:15:34;;;;;;;10.10;1.00;;;9.70;99.90;;;;;;5056138;28;20074;-94
2023/12/29 07:18:00;;;;;;;14.40;1.15;;;9.60;99.90;;;;;;5039563;28;20076;-96
2023/12/29 07:20:28;;;;;;;7.82;0.70;;;9.60;99.90;;;;;;5064181;28;20033;-95
2023/12/29 07:22:57;;;;;;;11.60;0.90;;;9.60;99.90;;;;;;5058390;28;20068;-96
2023/12/29 07:25:23;;;;;;;14.55;1.30;;;9.60;99.90;;;;;;5052308;28;20032;-96
2023/12/29 07:27:49;;;;;;;11.95;1.38;;;9.60;99.90;;;;;;5040422;28;20081;-95
2023/12/29 07:30:15;;;;;;;11.15;0.90;;;9.70;99.90;;;;;;5066121;28;20028;-95
2023/12/29 07:32:41;;;;;;;8.65;1.17;;;9.60;99.90;;;;;;5043781;28;20032;-95
2023/12/29 07:35:06;;;;;;;11.63;1.00;;;9.70;99.90;;;;;;5048247;28;20014;-95
2023/12/29 07:37:32;;;;;;;8.32;0.75;;;9.70;99.90;;;;;;5051555;28;20063;-94
2023/12/29 07:40:09;;;;;;;8.20;0.80;;;9.70;99.90;;;;;;5057372;28;20048;-95
2023/12/29 07:42:35;;;;;;;5.63;0.60;;;9.70;99.90;;;;;;5070435;28;20072;-95
2023/12/29 07:45:01;;;;;;;10.32;0.75;;;9.70;99.90;;;;;;5054491;28;20040;-91
2023/12/29 07:47:27;;;;;;;8.30;0.60;;;9.80;99.90;;;;;;5086358;28;20021;-95
2023/12/29 07:49:54;;;;;;;6.43;0.68;;;9.80;99.90;;;;;;5042081;28;20040;-96
2023/12/29 07:52:20;;;;;;;8.43;0.98;;;9.80;99.90;;;;;;5041132;28;20032;-95
2023/12/29 07:54:45;;;;;;;7.47;0.68;;;9.90;99.90;;;;;;5043547;28;20400;-95
2023/12/29 07:57:11;;;;;;;4.38;0.80;;;10.00;99.90;;;;;;5049125;28;20032;-95
2023/12/29 07:59:38;;;;;;;8.95;0.70;;;10.00;99.90;;;;;;5072556;28;20086;-93
2023/12/29 08:02:05;;;;;;;4.72;0.80;;;10.00;99.90;;;;;;5045250;28;20037;-95
2023/12/29 08:04:31;;;;;;;6.95;0.65;;;10.00;99.90;;;;;;5045434;28;20027;-95
2023/12/29 08:06:56;;;;;;;5.72;0.65;;;10.00;99.90;;;;;;5053171;28;20038;-95
2023/12/29 08:09:23;;;;;;;7.00;0.68;;;10.00;99.90;;;;;;5039277;28;20152;-94
2023/12/29 08:11:49;;;;;;;11.63;0.85;;;10.10;99.90;;;;;;5043175;28;20040;-95
2023/12/29 08:14:15;;;;;;;6.85;0.80;;;10.00;99.90;;;;;;5062102;28;20035;-95
2023/12/29 08:16:41;;;;;;;9.18;0.90;;;10.00;99.90;;;;;;5046305;28;20057;-95
2023/12/29 08:19:07;;;;;;;6.97;0.65;;;10.00;99.90;;;;;;5058253;28;20469;-94
2023/12/29 08:21:33;;;;;;;6.72;0.50;;;10.00;99.90;;;;;;5065858;28;20944;-96
2023/12/29 08:23:59;;;;;;;5.53;0.70;;;10.00;99.90;;;;;;5077032;28;20037;-96
2023/12/29 08:26:25;;;;;;;10.50;1.00;;;10.10;99.90;;;;;;5052827;28;20037;-95
2023/12/29 08:28:52;;;;;;;10.52;0.82;;;10.00;99.90;;;;;;5051908;28;20028;-95
2023/12/29 08:31:19;;;;;;;6.57;0.88;;;10.10;99.90;;;;;;5051973;28;20013;-95
2023/12/29 08:33:47;;;;;;;9.63;0.63;;;10.10;99.90;;;;;;5050025;28;20087;-95
2023/12/29 08:36:13;;;;;;;8.07;0.85;;;10.20;99.90;;;;;;5010634;28;20034;-93
2023/12/29 08:38:39;;;;;;;7.38;0.63;;;10.20;99.90;;;;;;5024045;28;20052;-95
2023/12/29 08:41:05;;;;;;;7.97;0.95;;;10.30;99.90;;;;;;5033769;28;20032;-93
2023/12/29 08:43:31;;;;;;;8.77;1.35;;;10.20;99.90;;;;;;5038435;28;20032;-95
2023/12/29 08:45:56;;;;;;;4.15;0.50;;;10.40;99.90;;;;;;5043192;28;20096;-96
2023/12/29 08:48:23;;;;;;;4.30;0.47;;;10.30;99.90;;;;;;5048580;28;20033;-94
2023/12/29 08:50:50;;;;;;;6.65;0.50;;;10.30;99.90;;;;;;5045150;28;20047;-95
2023/12/29 08:53:16;;;;;;;6.20;0.80;;;10.40;99.90;;;;;;5045591;28;20025;-94
2023/12/29 08:55:42;;;;;;;4.15;0.40;;;10.40;99.90;;;;;;5048498;28;20055;-96
2023/12/29 08:58:08;;;;;;;4.93;0.40;;;10.40;99.90;;;;;;5045497;28;20029;-96
2023/12/29 09:00:33;;;;;;;7.22;0.40;;;10.40;99.90;;;;;;5061747;28;20040;-94
2023/12/29 09:02:59;;;;;;;4.05;0.40;;;10.40;99.90;;;;;;5044937;28;20028;-95
2023/12/29 09:05:25;;;;;;;3.40;0.50;;;10.50;99.90;;;;;;5060509;28;20053;-95
2023/12/29 09:07:50;;;;;;;2.58;0.30;;;10.40;99.90;;;;;;5044621;28;20032;-95
2023/12/29 09:10:17;;;;;;;4.05;0.40;;;10.40;99.90;;;;;;5059225;28;20025;-96
2023/12/29 09:12:43;;;;;;;3.70;0.30;;;10.50;99.90;;;;;;5061882;28;20435;-95
2023/12/29 09:15:09;;;;;;;3.45;0.28;;;10.60;99.90;;;;;;5041134;28;20025;-94
2023/12/29 09:17:35;;;;;;;6.63;0.30;;;10.50;99.90;;;;;;5028704;28;20123;-94
2023/12/29 09:20:01;;;;;;;5.38;0.47;;;10.50;99.90;;;;;;5038035;28;20044;-95
2023/12/29 09:22:27;;;;;;;4.32;0.40;;;10.50;99.90;;;;;;5038390;28;20052;-95
2023/12/29 09:24:54;;;;;;;8.90;0.57;;;10.50;99.90;;;;;;5039160;28;20100;-95
2023/12/29 09:27:20;;;;;;;5.90;0.35;;;10.60;99.90;;;;;;5031186;28;20034;-94
2023/12/29 09:29:45;;;;;;;4.38;0.57;;;10.60;99.90;;;;;;5038776;28;20063;-95
2023/12/29 09:32:11;;;;;;;4.90;0.60;;;10.60;99.90;;;;;;5038299;28;20043;-95
2023/12/29 09:34:37;;;;;;;4.20;0.30;;;10.60;99.90;;;;;;5040212;28;20052;-95
2023/12/29 09:37:02;;;;;;;5.43;0.43;;;10.70;99.90;;;;;;5038014;28;20044;-94
2023/12/29 09:39:28;;;;;;;2.97;0.43;;;10.60;99.90;;;;;;5037991;28;20021;-96
2023/12/29 09:42:00;;;;;;;3.95;0.50;;;10.70;99.90;;;;;;5036503;28;20024;-95
2023/12/29 09:44:28;;;;;;;5.05;0.50;;;10.70;99.90;;;;;;5034377;28;20029;-96
2023/12/29 09:46:54;;;;;;;3.83;0.30;;;10.60;99.90;;;;;;5017398;28;20505;-95
2023/12/29 09:49:21;;;;;;;2.30;0.32;;;10.70;99.90;;;;;;5039257;28;20045;-95
2023/12/29 09:51:48;;;;;;;3.25;0.30;;;10.70;99.90;;;;;;5034204;28;20029;-95
2023/12/29 09:54:18;;;;;;;2.35;0.30;;;10.70;99.90;;;;;;5044332;28;20025;-95
2023/12/29 09:56:44;;;;;;;4.55;0.30;;;10.70;99.90;;;;;;5041629;28;20091;-96
2023/12/29 09:59:11;;;;;;;2.33;0.38;;;10.70;99.90;;;;;;5043437;28;20025;-96
2023/12/29 10:01:41;;;;;;;5.53;0.38;;;10.70;99.90;;;;;;5050357;28;20036;-96
2023/12/29 10:04:10;;;;;;;4.95;0.40;;;10.70;99.90;;;;;;5042346;28;20020;-96
2023/12/29 10:06:38;;;;;;;1.20;0.30;;;10.70;99.90;;;;;;5043582;28;20485;-95
2023/12/29 10:09:05;;;;;;;3.22;0.55;;;10.70;99.90;;;;;;5045382;28;20115;-94
2023/12/29 10:11:35;;;;;;;2.88;0.40;;;10.70;99.90;;;;;;5040931;28;20034;-93
2023/12/29 10:14:09;;;;;;;1.95;0.50;;;10.70;99.90;;;;;;5034575;28;20150;-94
2023/12/29 10:16:47;;;;;;;2.28;0.47;;;10.70;99.90;;;;;;5037782;28;20056;-93
2023/12/29 10:19:34;;;;;;;2.33;0.30;;;10.70;99.90;;;;;;5041900;28;20025;-94
2023/12/29 10:22:11;;;;;;;1.90;0.35;;;10.70;99.90;;;;;;5034095;28;20029;-95
2023/12/29 10:24:37;;;;;;;3.30;0.40;;;10.70;99.90;;;;;;5045133;28;20051;-96
2023/12/29 10:27:05;;;;;;;1.67;0.30;;;10.70;99.90;;;;;;5046395;28;20033;-95
2023/12/29 10:29:32;;;;;;;2.85;0.30;;;10.70;99.90;;;;;;5047249;28;20021;-95
2023/12/29 10:31:58;;;;;;;4.97;0.40;;;10.70;99.90;;;;;;5055246;28;20029;-94
2023/12/29 10:34:41;;;;;;;2.67;0.40;;;10.80;99.90;;;;;;5069916;28;20029;-95
2023/12/29 10:37:13;;;;;;;4.28;0.30;;;10.80;99.90;;;;;;5056452;28;20036;-95
2023/12/29 10:39:55;;;;;;;2.17;0.30;;;10.80;99.90;;;;;;5069929;28;20155;-93
2023/12/29 10:42:21;;;;;;;;;;;10.90;99.90;;;;;;5083819;28;20028;-93
2023/12/29 10:45:07;;;;;;;2.72;0.40;;;10.80;99.90;;;;;;5072309;28;20383;-94
2023/12/29 10:47:59;;;;;;;3.60;0.40;;;10.90;99.90;;;;;;5047076;28;20034;-94
2023/12/29 10:50:28;;;;;;;1.50;0.30;;;10.90;99.90;;;;;;5074948;28;20033;-96
2023/12/29 10:53:13;;;;;;;3.05;0.40;;;10.90;99.90;;;;;;5047541;28;20098;-95
2023/12/29 10:55:42;;;;;;;2.42;0.30;;;11.00;99.90;;;;;;5053478;28;20366;-96
2023/12/29 10:58:08;;;;;;;3.10;0.50;;;11.00;99.90;;;;;;5050686;28;20029;-95
2023/12/29 11:00:34;;;;;;;2.85;0.30;;;11.00;99.90;;;;;;5038570;28;20022;-95
2023/12/29 11:03:00;;;;;;;3.00;0.32;;;11.10;99.90;;;;;;5057352;28;20120;-95
2023/12/29 11:05:26;;;;;;;1.35;0.30;;;11.10;99.90;;;;;;5069993;28;20053;-95
2023/12/29 11:07:54;;;;;;;2.13;0.30;;;11.20;99.90;;;;;;5056780;28;20052;-96
2023/12/29 11:10:21;;;;;;;2.03;0.22;;;11.20;99.90;;;;;;5054824;28;20040;-96
2023/12/29 11:12:49;;;;;;;3.38;0.50;;;11.20;99.90;;;;;;5070390;28;20484;-95
2023/12/29 11:15:16;;;;;;;3.85;0.65;;;11.20;99.90;;;;;;5052767;28;20107;-96
2023/12/29 11:17:49;;;;;;;2.83;0.30;;;11.20;99.90;;;;;;5039622;28;20067;-95
2023/12/29 11:20:17;;;;;;;3.30;0.40;;;11.30;99.90;;;;;;5047171;28;20029;-96
2023/12/29 11:22:43;;;;;;;1.67;0.28;;;11.40;99.90;;;;;;5061935;28;20019;-96
2023/12/29 11:25:10;;;;;;;3.83;0.40;;;11.50;99.90;;;;;;5072749;28;20116;-96
2023/12/29 11:27:36;;;;;;;5.63;0.50;;;11.50;99.90;;;;;;5040876;28;20039;-95
2023/12/29 11:30:06;;;;;;;3.95;0.50;;;11.50;99.90;;;;;;5057419;28;20009;-95
2023/12/29 11:32:56;;;;;;;3.25;0.30;;;11.60;99.90;;;;;;5056955;28;20021;-95
2023/12/29 11:35:46;;;;;;;3.30;0.30;;;11.70;99.90;;;;;;5050197;28;20068;-95
2023/12/29 11:38:37;;;;;;;4.43;0.30;;;11.60;99.90;;;;;;5054702;28;20508;-94
2023/12/29 11:41:18;;;;;;;4.93;0.88;;;11.60;99.90;;;;;;5075492;28;20032;-94
2023/12/29 11:43:44;;;;;;;3.83;0.52;;;11.60;99.90;;;;;;5049470;28;20385;-95
2023/12/29 11:46:49;;;;;;;2.25;0.30;;;11.50;99.90;;;;;;5048923;28;20021;-95
2023/12/29 11:49:15;;;;;;;9.10;0.70;;;11.50;99.90;;;;;;5050856;23;20121;-76
2023/12/29 11:51:43;;;;;;;3.45;0.60;;;11.50;99.90;;;;;;5087535;28;20024;-76
2023/12/29 11:54:09;;;;;;;3.63;0.38;;;11.50;99.90;;;;;;5071803;28;20099;-77
2023/12/29 11:56:43;;;;;;;5.82;0.45;;;11.60;99.90;;;;;;5085367;28;20210;-76
2023/12/29 11:59:20;;;;;;;4.35;0.30;;;11.60;99.90;;;;;;5078331;28;20016;-76
2023/12/29 12:02:00;;;;;;;5.15;0.50;;;11.60;99.90;;;;;;5083581;28;20123;-76
2023/12/29 12:04:42;;;;;;;6.15;0.32;;;11.60;99.90;;;;;;5057897;28;20035;-77
2023/12/29 12:07:13;;;;;;;3.92;0.30;;;11.60;99.90;;;;;;5077680;28;20036;-76
2023/12/29 12:09:39;;;;;;;6.47;0.40;;;11.60;99.90;;;;;;5086558;28;20043;-76
2023/12/29 12:12:05;;;;;;;7.18;0.40;;;11.60;99.90;;;;;;5075485;28;20464;-76
2023/12/29 12:14:53;;;;;;;5.57;0.40;;;11.60;99.90;;;;;;5078214;28;20024;-76
2023/12/29 12:17:37;;;;;;;3.00;0.30;;;11.60;99.90;;;;;;5080640;28;20523;-76
2023/12/29 12:20:11;;;;;;;4.38;0.40;;;11.60;99.90;;;;;;5085844;28;20032;-76
2023/12/29 12:22:37;;;;;;;10.85;0.70;;;11.60;99.90;;;;;;5063416;28;20296;-76
2023/12/29 12:25:04;;;;;;;6.45;0.57;;;11.60;99.90;;;;;;5066775;28;20085;-76
2023/12/29 12:27:31;;;;;;;8.30;0.50;;;11.60;99.90;;;;;;5073841;28;20085;-76
2023/12/29 12:29:59;;;;;;;8.05;0.50;;;11.60;99.90;;;;;;5072303;28;20581;-77
2023/12/29 12:32:29;;;;;;;5.18;0.50;;;11.60;99.90;;;;;;5077856;28;20476;-76
2023/12/29 12:34:56;;;;;;;11.35;1.10;;;11.60;99.90;;;;;;5076134;28;20032;-76
2023/12/29 12:37:27;;;;;;;10.57;0.55;;;11.60;99.90;;;;;;5072052;28;20036;-76
2023/12/29 12:39:52;;;;;;;7.60;0.50;;;11.60;99.90;;;;;;5075779;28;20111;-76
2023/12/29 12:42:20;;;;;;;6.25;0.60;;;11.50;99.90;;;;;;5076979;28;20443;-76
2023/12/29 12:44:56;;;;;;;8.88;0.60;;;11.50;99.90;;;;;;5080460;28;20292;-76
2023/12/29 12:47:37;;;;;;;7.68;0.80;;;11.50;99.90;;;;;;5074268;28;20093;-76